Pagrindinis puslapis
METAR-TAF:

METAR-TAF

Oro uostai :

Siris, Iranas

platuma: 25-54-34N, ilguma: 054-32-22E, Aukštis: 13 m

Dabartinis oras

Ataskaita buvo paskelbta 33 minutes, ne 14:00 UTC
Vėjas 10 kt iš Vakarų
Temperatūra 27°C
Drėgmė 58%
Slėgis 1007 hPa
Matomumas: 7000 m

METAR: OIBS 201400Z 28010KT 7000 NSC 27/18 Q1007

Laikas: 19:03 (14:33 UTC)


TAF: trūkstamas

Orai ataskaitas ir orų prognozės (METAR, TAF).

turimą stotys yra geltonos ir raudonos taškus žemėlapyje.

Perkelti pele per norėdami pamatyti stoties vardą.

Tada spustelėkite, norėdami matyti oro stebėjimo ir prognozės.

Norėdami pakeisti žemėlapį: spustelėkite ant žalios mygtukų su juodo kryžiaus žemyn,; žalią mygtuką su brūkšneliu, jei norite nutolinti; arba žalių rodyklių gretimoms žemėlapius.


METAR-TAF: